Aliquippa, Pennsylvania
Current Conditions -  °F | °C
As of 8:51 AM on Friday 31 Oct 2014 (Local Time) from KPIT Reporting Station
Overcast Overcast  
Wind Chill: 43°   Ceiling: 4700
Heat Index: 43°   Visibility: 10mi
Dew Point: 38°   Wind: 0mph
Humidity: 82%   Direction: NA
Pressure: 29.95"   Gusts: NA
Location:  40.62°N, 80.24°W
Report Text: KPIT 311251Z 00000KT 10SM OVC047 06/03 A2995 RMK AO2 SLP154 T00610033
Loading
Personal Weather Stations






























Interactive Weather Map New forecast layout! Learn more

10-Day Weather Forecast

Advertisements
Track Severe Weather on mobile